createdAt,value
2023-03-25T00:01:49.692Z,100147.28
2023-03-25T00:04:18.677Z,100136.63
2023-03-25T00:06:46.959Z,100131.09
2023-03-25T00:09:14.851Z,100128.69
2023-03-25T00:11:42.693Z,100149.09
2023-03-25T00:14:17.194Z,100155.19
2023-03-25T00:16:48.431Z,100144.50
2023-03-25T00:19:16.699Z,100151.38
2023-03-25T00:21:44.992Z,100143.00
2023-03-25T00:24:17.781Z,100157.66
2023-03-25T00:26:46.232Z,100171.06
2023-03-25T00:29:15.719Z,100174.59
2023-03-25T00:31:43.683Z,100159.38
2023-03-25T00:34:14.467Z,100180.59
2023-03-25T00:36:43.808Z,100177.75
2023-03-25T00:39:11.783Z,100190.22
2023-03-25T00:41:42.100Z,100187.56
2023-03-25T00:44:12.365Z,100182.50
2023-03-25T00:46:41.757Z,100182.44
2023-03-25T00:49:10.828Z,100177.09
2023-03-25T00:51:52.522Z,100173.38
2023-03-25T00:54:22.339Z,100195.56
2023-03-25T00:56:50.469Z,100178.69
2023-03-25T00:59:18.440Z,100195.47
2023-03-25T01:01:48.868Z,100197.28
2023-03-25T01:04:18.189Z,100190.22
2023-03-25T01:06:46.189Z,100200.88
2023-03-25T01:09:15.524Z,100200.88
2023-03-25T01:11:44.320Z,100204.53
2023-03-25T01:14:14.200Z,100201.94
2023-03-25T01:16:42.438Z,100209.94
2023-03-25T01:19:11.746Z,100205.47
2023-03-25T01:21:39.711Z,100200.22
2023-03-25T01:24:08.304Z,100220.03
2023-03-25T01:26:36.312Z,100203.28
2023-03-25T01:29:04.208Z,100204.97
2023-03-25T01:31:32.138Z,100162.38
2023-03-25T01:34:00.133Z,100206.78
2023-03-25T01:36:30.398Z,100201.44
2023-03-25T01:38:59.298Z,100189.53
2023-03-25T01:41:35.689Z,100218.31
2023-03-25T01:44:07.747Z,100209.84
2023-03-25T01:46:35.730Z,100222.78
2023-03-25T01:49:05.159Z,100222.72
2023-03-25T01:51:36.050Z,100206.22
2023-03-25T01:54:03.944Z,100236.81
2023-03-25T01:56:33.456Z,100225.56
2023-03-25T01:59:02.473Z,100237.47
2023-03-25T02:01:31.430Z,100252.69
2023-03-25T02:04:03.091Z,100242.91
2023-03-25T02:06:33.949Z,100237.94
2023-03-25T02:09:05.069Z,100226.22
2023-03-25T02:11:33.052Z,100249.28
2023-03-25T02:14:02.726Z,100254.88
2023-03-25T02:16:34.335Z,100253.66
2023-03-25T02:19:13.342Z,100240.63
2023-03-25T02:22:07.517Z,100248.03
2023-03-25T02:25:22.779Z,100262.16
2023-03-25T02:28:02.911Z,100258.22
2023-03-25T02:30:41.858Z,100253.09
2023-03-25T02:33:35.767Z,100270.34
2023-03-25T02:36:19.579Z,100280.25
2023-03-25T02:38:49.727Z,100263.38
2023-03-25T02:41:19.664Z,100268.59
2023-03-25T02:43:49.951Z,100256.97
2023-03-25T02:46:18.816Z,100286.44
2023-03-25T02:48:52.638Z,100285.69
2023-03-25T02:51:23.149Z,100289.44
2023-03-25T02:53:52.887Z,100277.56
2023-03-25T02:56:22.911Z,100282.13
2023-03-25T02:58:51.608Z,100290.91
2023-03-25T03:01:23.022Z,100289.94
2023-03-25T03:03:51.023Z,100281.94
2023-03-25T03:06:19.351Z,100285.56
2023-03-25T03:09:13.136Z,100299.84
2023-03-25T03:11:42.988Z,100308.88
2023-03-25T03:14:31.508Z,100313.28
2023-03-25T03:17:04.211Z,100318.72
2023-03-25T03:19:38.325Z,100306.84
2023-03-25T03:22:15.273Z,100322.69
2023-03-25T03:24:46.001Z,100327.31
2023-03-25T03:27:14.913Z,100321.75
2023-03-25T03:29:45.698Z,100331.31
2023-03-25T03:32:15.686Z,100336.72
2023-03-25T03:34:46.544Z,100320.91
2023-03-25T03:37:16.188Z,100330.88
2023-03-25T03:39:45.521Z,100318.03
2023-03-25T03:42:15.839Z,100328.69
2023-03-25T03:44:45.240Z,100320.69
2023-03-25T03:47:14.297Z,100334.16
2023-03-25T03:49:43.544Z,100335.81
2023-03-25T03:52:12.717Z,100320.75
2023-03-25T03:54:43.311Z,100332.41
2023-03-25T03:57:14.452Z,100340.41
2023-03-25T03:59:46.463Z,100337.75
2023-03-25T04:02:18.207Z,100340.41
2023-03-25T04:04:46.097Z,100343.25
2023-03-25T04:07:15.802Z,100319.91
2023-03-25T04:09:54.893Z,100316.19
2023-03-25T04:12:25.870Z,100344.56
2023-03-25T04:14:54.596Z,100337.25
2023-03-25T04:17:22.661Z,100335.34
2023-03-25T04:19:53.702Z,100323.66
2023-03-25T04:22:21.899Z,100340.16
2023-03-25T04:24:51.950Z,100317.38
2023-03-25T04:27:23.249Z,100329.97
2023-03-25T04:29:52.990Z,100347.28
2023-03-25T04:32:20.952Z,100342.72
2023-03-25T04:34:48.830Z,100360.41
2023-03-25T04:37:16.718Z,100334.72
2023-03-25T04:39:44.580Z,100342.44
2023-03-25T04:42:13.823Z,100356.53
2023-03-25T04:44:41.803Z,100361.28
2023-03-25T04:47:14.983Z,100370.81
2023-03-25T04:49:45.238Z,100375.97
2023-03-25T04:52:13.339Z,100380.44
2023-03-25T04:54:41.368Z,100381.38
2023-03-25T04:57:09.810Z,100378.66
2023-03-25T04:59:38.062Z,100374.25
2023-03-25T05:02:06.257Z,100384.84
2023-03-25T05:04:35.490Z,100390.19
2023-03-25T05:07:04.237Z,100391.13
2023-03-25T05:09:32.171Z,100387.59
2023-03-25T05:12:00.186Z,100380.13
2023-03-25T05:14:28.153Z,100395.53
2023-03-25T05:16:59.421Z,100391.88
2023-03-25T05:19:28.805Z,100402.91
2023-03-25T05:21:58.437Z,100398.28
2023-03-25T05:24:26.349Z,100398.28
2023-03-25T05:26:54.978Z,100419.88
2023-03-25T05:29:22.955Z,100420.63
2023-03-25T05:31:50.987Z,100440.09
2023-03-25T05:34:20.747Z,100431.03
2023-03-25T05:36:48.815Z,100439.81
2023-03-25T05:39:18.074Z,100445.09
2023-03-25T05:41:46.192Z,100454.72
2023-03-25T05:44:15.604Z,100454.72
2023-03-25T05:46:44.293Z,100468.97
2023-03-25T05:49:12.276Z,100471.13
2023-03-25T05:51:40.716Z,100476.13
2023-03-25T05:54:11.463Z,100473.38
2023-03-25T05:56:41.475Z,100478.56
2023-03-25T05:59:10.406Z,100464.28
2023-03-25T06:01:38.568Z,100476.22
2023-03-25T06:04:10.348Z,100486.00
2023-03-25T06:06:38.652Z,100486.00
2023-03-25T06:09:06.904Z,100504.56
2023-03-25T06:11:38.821Z,100489.59
2023-03-25T06:14:08.334Z,100507.50
2023-03-25T06:16:36.287Z,100514.44
2023-03-25T06:19:04.272Z,100517.78
2023-03-25T06:21:34.029Z,100524.41
2023-03-25T06:24:02.439Z,100516.19
2023-03-25T06:26:30.419Z,100514.44
2023-03-25T06:28:58.665Z,100530.81
2023-03-25T06:31:28.152Z,100526.69
2023-03-25T06:33:57.633Z,100538.66
2023-03-25T06:36:27.412Z,100537.69
2023-03-25T06:38:55.330Z,100528.41
2023-03-25T06:41:25.259Z,100555.28
2023-03-25T06:43:53.426Z,100568.50
2023-03-25T06:46:21.412Z,100563.09
2023-03-25T06:48:50.669Z,100564.72
2023-03-25T06:51:18.559Z,100575.38
2023-03-25T06:53:46.552Z,100567.53
2023-03-25T06:56:14.739Z,100574.47
2023-03-25T06:58:43.320Z,100573.59
2023-03-25T07:01:11.209Z,100570.81
2023-03-25T07:03:39.425Z,100566.28
2023-03-25T07:06:09.748Z,100572.63
2023-03-25T07:08:37.655Z,100578.47
2023-03-25T07:11:07.477Z,100581.25
2023-03-25T07:13:35.475Z,100579.19
2023-03-25T07:16:03.518Z,100590.53
2023-03-25T07:18:31.610Z,100584.09
2023-03-25T07:20:59.767Z,100586.31
2023-03-25T07:23:29.057Z,100591.00
2023-03-25T07:25:58.045Z,100589.16
2023-03-25T07:28:26.121Z,100582.63
2023-03-25T07:30:54.356Z,100595.22
2023-03-25T07:33:22.470Z,100608.41
2023-03-25T07:35:50.584Z,100599.53
2023-03-25T07:38:19.141Z,100580.59
2023-03-25T07:40:49.943Z,100611.75
2023-03-25T07:43:18.431Z,100617.16
2023-03-25T07:45:46.340Z,100625.75
2023-03-25T07:48:16.344Z,100621.53
2023-03-25T07:50:45.769Z,100630.41
2023-03-25T07:53:13.710Z,100637.44
2023-03-25T07:55:41.628Z,100639.19
2023-03-25T07:58:10.981Z,100629.78
2023-03-25T08:00:38.920Z,100645.66
2023-03-25T08:03:06.994Z,100631.19
2023-03-25T08:05:35.853Z,100640.94
2023-03-25T08:08:06.007Z,100648.59
2023-03-25T08:10:35.231Z,100646.53
2023-03-25T08:13:03.269Z,100654.59
2023-03-25T08:15:32.692Z,100650.75
2023-03-25T08:18:01.820Z,100659.34
2023-03-25T08:20:29.743Z,100658.41
2023-03-25T08:22:58.838Z,100676.94
2023-03-25T08:25:26.752Z,100670.72
2023-03-25T08:27:54.890Z,100682.06
2023-03-25T08:30:22.909Z,100676.84
2023-03-25T08:32:54.854Z,100697.00
2023-03-25T08:35:23.803Z,100697.59
2023-03-25T08:37:52.000Z,100699.13
2023-03-25T08:40:20.192Z,100699.75
2023-03-25T08:42:48.135Z,100693.63
2023-03-25T08:45:16.328Z,100714.34
2023-03-25T08:47:45.720Z,100695.56
2023-03-25T08:50:15.070Z,100713.84
2023-03-25T08:52:42.970Z,100716.41
2023-03-25T08:55:12.432Z,100720.63
2023-03-25T08:57:42.458Z,100722.00
2023-03-25T09:00:14.167Z,100724.56
2023-03-25T09:02:42.573Z,100721.53
2023-03-25T09:05:10.955Z,100720.34
2023-03-25T09:07:40.338Z,100733.53
2023-03-25T09:10:09.543Z,100731.44
2023-03-25T09:12:37.488Z,100738.84
2023-03-25T09:15:05.884Z,100741.00
2023-03-25T09:17:33.766Z,100749.16
2023-03-25T09:20:02.283Z,100746.38
2023-03-25T09:22:30.225Z,100753.47
2023-03-25T09:24:59.708Z,100757.78
2023-03-25T09:27:27.787Z,100763.13
2023-03-25T09:29:55.967Z,100753.84
2023-03-25T09:32:23.895Z,100757.50
2023-03-25T09:34:51.836Z,100761.78
2023-03-25T09:37:19.767Z,100747.19
2023-03-25T09:39:47.915Z,100763.31
2023-03-25T09:42:37.932Z,100757.03
2023-03-25T09:45:13.273Z,100762.13
2023-03-25T09:47:41.635Z,100766.81
2023-03-25T09:50:13.275Z,100741.78
2023-03-25T09:52:47.863Z,100773.63
2023-03-25T09:55:19.106Z,100763.84
2023-03-25T09:57:49.631Z,100759.75
2023-03-25T10:00:18.992Z,100770.38
2023-03-25T10:02:48.248Z,100762.69
2023-03-25T10:05:21.084Z,100775.50
2023-03-25T10:08:00.107Z,100766.81
2023-03-25T10:10:29.691Z,100763.78
2023-03-25T10:13:04.477Z,100789.66
2023-03-25T10:15:34.808Z,100796.78
2023-03-25T10:18:10.225Z,100800.75
2023-03-25T10:20:44.363Z,100807.63
2023-03-25T10:23:17.249Z,100811.53
2023-03-25T10:25:47.300Z,100807.94
2023-03-25T10:28:18.940Z,100814.84
2023-03-25T10:30:47.848Z,100809.72
2023-03-25T10:33:18.909Z,100820.84
2023-03-25T10:35:48.480Z,100808.81
2023-03-25T10:38:18.948Z,100817.09
2023-03-25T10:40:50.321Z,100830.13
2023-03-25T10:43:25.687Z,100824.81
2023-03-25T10:45:55.618Z,100832.31
2023-03-25T10:48:25.315Z,100828.59
2023-03-25T10:50:53.574Z,100817.72
2023-03-25T10:53:24.319Z,100831.78
2023-03-25T10:55:57.747Z,100829.22
2023-03-25T10:58:27.153Z,100837.88
2023-03-25T11:00:55.061Z,100827.75
2023-03-25T11:03:25.376Z,100840.06
2023-03-25T11:05:54.164Z,100827.22
2023-03-25T11:08:24.903Z,100835.59
2023-03-25T11:10:57.433Z,100829.00
2023-03-25T11:13:27.908Z,100826.44
2023-03-25T11:15:56.407Z,100827.84
2023-03-25T11:18:26.131Z,100819.00
2023-03-25T11:20:57.821Z,100829.41
2023-03-25T11:23:27.526Z,100824.34
2023-03-25T11:25:55.748Z,100810.59
2023-03-25T11:28:39.604Z,100807.03
2023-03-25T11:31:12.618Z,100831.78
2023-03-25T11:33:41.158Z,100838.66
2023-03-25T11:36:21.960Z,100830.63
2023-03-25T11:38:53.906Z,100849.09
2023-03-25T11:41:21.818Z,100849.91
2023-03-25T11:43:51.120Z,100840.47
2023-03-25T11:46:19.892Z,100850.53
2023-03-25T11:48:47.910Z,100850.44
2023-03-25T11:51:16.851Z,100839.59
2023-03-25T11:53:46.119Z,100845.16
2023-03-25T11:56:20.659Z,100826.88
2023-03-25T11:58:49.961Z,100831.06
2023-03-25T12:01:28.080Z,100840.09
2023-03-25T12:04:07.701Z,100842.34
2023-03-25T12:06:35.672Z,100852.78
2023-03-25T12:09:05.568Z,100846.13
2023-03-25T12:11:34.942Z,100844.22
2023-03-25T12:14:15.960Z,100839.59
2023-03-25T12:16:46.438Z,100834.84
2023-03-25T12:19:17.664Z,100825.28
2023-03-25T12:21:55.105Z,100830.59
2023-03-25T12:24:33.023Z,100820.25
2023-03-25T12:27:10.407Z,100814.13
2023-03-25T12:29:42.967Z,100820.28
2023-03-25T12:32:19.494Z,100808.41
2023-03-25T12:34:53.578Z,100814.78
2023-03-25T12:37:26.393Z,100803.50
2023-03-25T12:40:06.675Z,100796.50
2023-03-25T12:42:39.787Z,100800.38
2023-03-25T12:45:40.910Z,100787.59
2023-03-25T12:48:12.114Z,100786.50
2023-03-25T12:50:46.083Z,100786.31
2023-03-25T12:53:24.393Z,100777.06
2023-03-25T12:55:58.061Z,100785.03
2023-03-25T12:58:41.804Z,100778.03
2023-03-25T13:01:14.138Z,100782.00
2023-03-25T13:03:55.823Z,100780.28
2023-03-25T13:06:30.353Z,100777.38
2023-03-25T13:09:00.031Z,100773.81
2023-03-25T13:11:29.883Z,100777.72
2023-03-25T13:13:59.679Z,100779.28
2023-03-25T13:16:29.532Z,100783.50
2023-03-25T13:19:01.340Z,100781.47
2023-03-25T13:21:30.228Z,100773.94
2023-03-25T13:23:59.451Z,100766.06
2023-03-25T13:26:29.435Z,100769.69
2023-03-25T13:28:59.297Z,100780.53
2023-03-25T13:31:30.314Z,100768.94
2023-03-25T13:34:02.569Z,100778.09
2023-03-25T13:36:33.392Z,100787.78
2023-03-25T13:39:04.774Z,100772.75
2023-03-25T13:41:35.627Z,100784.56
2023-03-25T13:44:05.877Z,100783.94
2023-03-25T13:46:37.311Z,100778.97
2023-03-25T13:49:07.651Z,100768.03
2023-03-25T13:51:35.839Z,100777.09
2023-03-25T13:54:05.746Z,100760.47
2023-03-25T13:56:58.744Z,100760.66
2023-03-25T13:59:57.557Z,100757.03
2023-03-25T14:02:38.892Z,100747.38
2023-03-25T14:05:45.755Z,100754.88
2023-03-25T14:08:38.516Z,100755.16
2023-03-25T14:11:18.306Z,100745.94
2023-03-25T14:13:47.081Z,100735.81
2023-03-25T14:16:16.435Z,100740.34
2023-03-25T14:18:47.230Z,100723.31
2023-03-25T14:21:23.746Z,100729.03
2023-03-25T14:24:00.839Z,100728.50
2023-03-25T14:26:28.764Z,100728.41
2023-03-25T14:28:58.141Z,100728.66
2023-03-25T14:31:30.115Z,100717.94
2023-03-25T14:34:25.531Z,100727.66
2023-03-25T14:37:30.686Z,100725.72
2023-03-25T14:40:00.880Z,100724.09
2023-03-25T14:42:41.386Z,100724.09
2023-03-25T14:45:35.555Z,100726.16
2023-03-25T14:48:15.806Z,100718.00
2023-03-25T14:50:56.057Z,100708.75
2023-03-25T14:53:23.963Z,100716.50
2023-03-25T14:55:52.072Z,100717.25
2023-03-25T14:58:21.236Z,100705.00
2023-03-25T15:00:54.785Z,100710.16
2023-03-25T15:03:23.411Z,100703.38
2023-03-25T15:06:00.283Z,100690.63
2023-03-25T15:08:32.396Z,100692.75
2023-03-25T15:11:05.810Z,100695.72
2023-03-25T15:13:35.261Z,100684.09
2023-03-25T15:16:04.575Z,100688.84
2023-03-25T15:19:04.280Z,100695.78
2023-03-25T15:21:35.002Z,100686.34
2023-03-25T15:24:06.495Z,100690.34
2023-03-25T15:26:35.597Z,100692.28
2023-03-25T15:29:31.996Z,100682.00
2023-03-25T15:32:07.437Z,100676.84
2023-03-25T15:34:57.356Z,100680.44
2023-03-25T15:37:50.306Z,100677.91
2023-03-25T15:40:27.526Z,100669.94
2023-03-25T15:43:22.221Z,100666.91
2023-03-25T15:46:24.672Z,100657.94
2023-03-25T15:49:03.302Z,100667.84
2023-03-25T15:51:55.847Z,100667.00
2023-03-25T15:54:33.087Z,100655.16
2023-03-25T15:57:03.158Z,100639.38
2023-03-25T15:59:38.171Z,100649.13
2023-03-25T16:02:08.276Z,100646.06
2023-03-25T16:04:39.307Z,100645.94
2023-03-25T16:07:08.122Z,100641.16
2023-03-25T16:09:41.842Z,100640.25
2023-03-25T16:12:10.540Z,100644.09
2023-03-25T16:14:39.583Z,100633.69
2023-03-25T16:17:08.982Z,100626.94
2023-03-25T16:19:41.566Z,100616.94
2023-03-25T16:22:19.975Z,100617.56
2023-03-25T16:24:50.045Z,100611.44
2023-03-25T16:27:23.397Z,100599.66
2023-03-25T16:29:52.869Z,100600.47
2023-03-25T16:32:21.920Z,100594.38
2023-03-25T16:34:50.375Z,100588.34
2023-03-25T16:37:19.085Z,100586.34
2023-03-25T16:39:53.391Z,100571.47
2023-03-25T16:42:26.554Z,100582.88
2023-03-25T16:44:54.754Z,100572.34
2023-03-25T16:47:22.754Z,100558.81
2023-03-25T16:49:52.543Z,100553.84
2023-03-25T16:52:23.589Z,100544.88
2023-03-25T16:55:14.961Z,100545.56
2023-03-25T16:57:43.055Z,100546.81
2023-03-25T17:00:18.216Z,100526.19
2023-03-25T17:02:48.505Z,100541.44
2023-03-25T17:05:19.453Z,100536.78
2023-03-25T17:07:51.131Z,100527.13
2023-03-25T17:10:23.037Z,100527.22
2023-03-25T17:12:55.972Z,100522.31
2023-03-25T17:15:24.352Z,100525.84
2023-03-25T17:17:53.780Z,100506.28
2023-03-25T17:20:23.487Z,100519.72
2023-03-25T17:23:02.749Z,100513.84
2023-03-25T17:25:33.550Z,100505.72
2023-03-25T17:28:19.836Z,100520.06
2023-03-25T17:30:47.912Z,100500.69
2023-03-25T17:33:17.221Z,100515.94
2023-03-25T17:35:45.346Z,100518.53
2023-03-25T17:38:17.087Z,100510.34
2023-03-25T17:40:46.694Z,100513.78
2023-03-25T17:43:19.316Z,100487.03
2023-03-25T17:45:47.406Z,100496.41
2023-03-25T17:48:16.970Z,100503.66
2023-03-25T17:50:51.732Z,100500.22
2023-03-25T17:53:20.331Z,100480.25
2023-03-25T17:55:50.045Z,100474.06
2023-03-25T17:58:18.302Z,100462.03
2023-03-25T18:00:46.750Z,100480.25
2023-03-25T18:03:16.400Z,100490.47
2023-03-25T18:05:45.551Z,100468.34
2023-03-25T18:08:15.683Z,100466.88
2023-03-25T18:10:43.910Z,100458.38
2023-03-25T18:13:24.796Z,100458.75
2023-03-25T18:15:53.089Z,100458.91
2023-03-25T18:18:24.331Z,100431.31
2023-03-25T18:20:52.780Z,100437.44
2023-03-25T18:23:21.316Z,100408.66
2023-03-25T18:25:49.276Z,100428.59
2023-03-25T18:28:18.598Z,100439.72
2023-03-25T18:30:47.027Z,100437.44
2023-03-25T18:33:15.816Z,100431.31
2023-03-25T18:35:43.938Z,100431.69
2023-03-25T18:38:15.809Z,100441.88
2023-03-25T18:40:43.780Z,100437.72
2023-03-25T18:43:11.710Z,100436.28
2023-03-25T18:45:41.063Z,100423.22
2023-03-25T18:48:09.086Z,100421.84
2023-03-25T18:50:37.655Z,100408.69
2023-03-25T18:53:05.712Z,100409.91
2023-03-25T18:55:34.150Z,100400.38
2023-03-25T18:58:03.394Z,100393.56
2023-03-25T19:00:32.307Z,100392.13
2023-03-25T19:03:01.648Z,100377.06
2023-03-25T19:05:29.574Z,100376.47
2023-03-25T19:07:57.660Z,100371.06
2023-03-25T19:10:26.515Z,100357.19
2023-03-25T19:12:54.417Z,100368.56
2023-03-25T19:15:24.953Z,100357.91
2023-03-25T19:17:53.101Z,100353.59
2023-03-25T19:20:24.061Z,100361.44
2023-03-25T19:22:52.253Z,100349.19
2023-03-25T19:25:20.164Z,100355.41
2023-03-25T19:27:48.113Z,100350.00
2023-03-25T19:30:17.626Z,100334.00
2023-03-25T19:32:47.050Z,100334.84
2023-03-25T19:35:15.670Z,100326.78
2023-03-25T19:37:47.548Z,100329.44
2023-03-25T19:40:17.178Z,100323.16
2023-03-25T19:42:45.030Z,100322.28
2023-03-25T19:45:13.816Z,100314.28
2023-03-25T19:47:42.965Z,100322.22
2023-03-25T19:50:11.378Z,100313.53
2023-03-25T19:52:40.112Z,100315.91
2023-03-25T19:55:10.950Z,100303.47
2023-03-25T19:57:38.880Z,100307.84
2023-03-25T20:00:12.601Z,100306.28
2023-03-25T20:02:41.101Z,100303.47
2023-03-25T20:05:10.682Z,100291.00
2023-03-25T20:07:38.566Z,100277.78
2023-03-25T20:10:18.977Z,100279.38
2023-03-25T20:12:48.882Z,100273.09
2023-03-25T20:15:17.497Z,100268.63
2023-03-25T20:17:45.571Z,100266.13
2023-03-25T20:20:14.862Z,100233.81
2023-03-25T20:22:42.781Z,100247.59
2023-03-25T20:25:11.351Z,100251.00
2023-03-25T20:27:39.443Z,100245.69
2023-03-25T20:30:10.123Z,100237.69
2023-03-25T20:32:41.356Z,100220.22
2023-03-25T20:35:12.546Z,100236.81
2023-03-25T20:37:41.198Z,100220.34
2023-03-25T20:40:11.215Z,100210.69
2023-03-25T20:42:39.977Z,100219.41
2023-03-25T20:45:10.971Z,100210.34
2023-03-25T20:47:38.932Z,100211.22
2023-03-25T20:50:07.059Z,100212.94
2023-03-25T20:52:36.331Z,100210.16
2023-03-25T20:55:05.669Z,100210.16
2023-03-25T20:57:33.628Z,100213.00
2023-03-25T21:00:01.493Z,100203.41
2023-03-25T21:02:30.955Z,100199.16
2023-03-25T21:05:01.011Z,100198.59
2023-03-25T21:07:31.739Z,100196.09
2023-03-25T21:09:59.855Z,100184.69
2023-03-25T21:12:40.645Z,100187.34
2023-03-25T21:15:11.349Z,100182.19
2023-03-25T21:17:40.608Z,100132.53
2023-03-25T21:20:10.144Z,100173.41
2023-03-25T21:22:42.927Z,100166.28
2023-03-25T21:25:11.699Z,100168.03
2023-03-25T21:27:40.156Z,100164.41
2023-03-25T21:30:09.646Z,100170.31
2023-03-25T21:32:37.900Z,100159.75
2023-03-25T21:35:08.177Z,100158.78
2023-03-25T21:37:38.510Z,100138.03
2023-03-25T21:40:10.433Z,100152.53
2023-03-25T21:42:39.464Z,100139.09
2023-03-25T21:45:10.756Z,100130.72
2023-03-25T21:47:38.665Z,100136.34
2023-03-25T21:50:09.695Z,100139.97
2023-03-25T21:52:38.210Z,100134.63
2023-03-25T21:55:07.104Z,100125.69
2023-03-25T21:57:38.134Z,100129.38
2023-03-25T22:00:08.654Z,100124.16
2023-03-25T22:02:36.614Z,100113.78
2023-03-25T22:05:04.601Z,100119.84
2023-03-25T22:07:33.836Z,100104.56
2023-03-25T22:10:01.705Z,100111.69
2023-03-25T22:12:30.101Z,100105.78
2023-03-25T22:14:57.971Z,100099.78
2023-03-25T22:17:26.064Z,100095.56
2023-03-25T22:19:54.001Z,100085.22
2023-03-25T22:22:21.895Z,100093.09
2023-03-25T22:24:51.383Z,100092.25
2023-03-25T22:27:19.281Z,100087.88
2023-03-25T22:29:47.117Z,100087.03
2023-03-25T22:32:14.954Z,100084.44
2023-03-25T22:34:42.804Z,100076.44
2023-03-25T22:37:10.763Z,100087.19
2023-03-25T22:39:39.003Z,100082.03
2023-03-25T22:42:08.355Z,100078.06
2023-03-25T22:44:36.255Z,100076.59
2023-03-25T22:47:04.339Z,100075.19
2023-03-25T22:49:32.347Z,100080.34
2023-03-25T22:52:01.312Z,100075.81
2023-03-25T22:54:29.268Z,100067.53
2023-03-25T22:56:57.176Z,100071.88
2023-03-25T22:59:26.445Z,100066.47
2023-03-25T23:01:54.662Z,100067.88
2023-03-25T23:04:22.673Z,100069.44
2023-03-25T23:07:04.748Z,100062.03
2023-03-25T23:09:45.042Z,100058.09
2023-03-25T23:12:14.077Z,100052.22
2023-03-25T23:14:44.634Z,100055.03
2023-03-25T23:17:12.683Z,100055.94
2023-03-25T23:19:40.660Z,100057.59
2023-03-25T23:22:09.210Z,100058.53
2023-03-25T23:24:37.313Z,100054.06
2023-03-25T23:27:05.681Z,100041.81
2023-03-25T23:29:35.843Z,100041.13
2023-03-25T23:32:05.252Z,100025.38
2023-03-25T23:34:33.944Z,100027.22
2023-03-25T23:37:02.051Z,100001.19
2023-03-25T23:39:30.164Z,100008.47
2023-03-25T23:41:58.098Z,100008.19
2023-03-25T23:44:26.107Z,100002.88
2023-03-25T23:46:54.008Z,100004.44
2023-03-25T23:49:23.291Z,99954.53
2023-03-25T23:51:51.370Z,99987.28
2023-03-25T23:54:19.283Z,99987.28
2023-03-25T23:56:47.256Z,99988.16
2023-03-25T23:59:15.139Z,99980.34
